メヘラーバード国際空港(テヘラン)の過去48時間の天気

メヘラーバード国際空港(テヘラン) (Tehran-Mehrabad)

現在時刻: 2/25 12:06 +0330 (2/25 08:36 UTC) 以下の時間は現地時間です。

過去48時間のMETAR気象情報
時間 風向 風速(m/s) 視程 気温(℃) 湿度(%) 気圧(hPa) 天気現象
25 11:30 南南東 3 2000m 10 87 1015 強い雨
25 11:00 静穏 0 2000m 10 87 1016 強い雨
25 10:30 3 2000m 10 87 1015
25 10:00 南東 3 2000m 10 87 1015
25 09:30 3 3000m 10 94 1016
25 09:00 南東 3 4000m 10 87 1015
25 08:30 南南東 3 4000m 11 87 1015
25 08:00 4 5000m 11 82 1015 弱い雨
25 07:30 3 5000m 11 82 1015 弱い雨
25 07:00 3 3000m 10 87 1014
25 06:39 3 3000m 10 87 1015
25 06:02 静穏 0 3000m 10 87 1015
25 05:30 静穏 0 3000m 9 87 1015
25 05:00 西南西 2 3000m 10 82 1015
25 04:36 静穏 0 3000m 10 82 1015
25 04:30 静穏 0 5000m 11 82 1015 弱い雨
25 04:00 静穏 0 6000m 11 76 1014 弱い雨
25 03:30 西 3 8000m 11 76 1015
25 03:00 北西 3 8000m 12 71 1015 弱い雨
25 02:30 静穏 0 10km以上 12 71 1014
25 02:00 西 2 10km以上 12 71 1014
25 01:30 北北東 2 10km以上 13 62 1014
25 01:00 東北東 4 10km以上 12 67 1015
25 00:30 北北東 2 8000m 12 62 1016 弱い雨
25 00:00 北北東 3 10km以上 12 62 1016
24 23:30 北東 3 7000m 12 67 1016 弱い雨
24 23:00 北東 3 6000m 12 67 1017 弱い雨
24 22:30 東北東 2 7000m 12 67 1018 弱い雨
24 22:00 北東 3 6000m 11 71 1018 弱い雨
24 21:30 北北東 3 5000m 12 67 1018 弱い雨
24 21:00 北東 4 6000m 12 67 1018 弱い雨
24 20:30 北東 4 8000m 12 67 1018 弱い雨
24 19:30 3 8000m 14 51 1018 弱い雨
24 19:00 南南西 2 8000m 15 36 1018 弱いしゅう雨
24 18:30 静穏 0 8000m 16 31 1018 弱いしゅう雨
24 18:16 西南西 2 8000m 16 34 1018 弱いしゅう雨
24 18:00 南西 3 8000m 16 36 1017
24 17:30 5 8000m 17 27 1016
24 17:00 南南西 3 8000m 17 29 1016
24 16:30 南西 4 8000m 17 29 1016
24 16:00 南南西 3 8000m 17 29 1016
24 15:30 3 8000m 18 28 1016
24 15:00 南南西 2 8000m 18 28 1017
24 14:30 南南西 4 8000m 18 28 1017
24 14:00 4 8000m 18 28 1018
24 13:30 南南西 3 10km以上 18 26 1018
24 13:00 5 8000m 18 26 1019
24 12:30 西南西 4 8000m 18 26 1019
24 12:00 西南西 3 8000m 17 27 1020
24 11:30 南西 4 8000m 17 27 1020
24 11:00 西南西 2 10km以上 17 25 1020
24 10:30 静穏 0 10km以上 17 27 1020
24 10:00 静穏 0 10km以上 17 27 1021
24 09:30 静穏 0 10km以上 15 31 1021
24 09:00 2 10km以上 14 36 1021
24 08:30 静穏 0 10km以上 13 41 1021
24 08:00 静穏 0 10km以上 12 44 1020
24 07:30 静穏 0 10km以上 11 43 1020
24 07:00 北北東 2 10km以上 10 43 1020
24 06:30 2 10km以上 11 40 1019
24 06:00 北西 3 10km以上 11 40 1019
24 05:30 北北西 3 10km以上 12 38 1019
24 05:00 北北西 2 10km以上 12 38 1019
24 04:30 北北西 3 10km以上 12 38 1019
24 04:00 北西 2 10km以上 11 40 1019
24 03:30 北北西 2 10km以上 12 41 1019
24 03:00 2 10km以上 10 46 1019
24 02:30 北北西 2 10km以上 11 43 1019
24 02:00 静穏 0 10km以上 12 41 1020
24 01:30 北北西 2 10km以上 12 41 1019
24 01:00 北北西 3 10km以上 13 38 1020
24 00:30 北北西 2 10km以上 12 41 1020
24 00:00 北北西 2 10km以上 13 38 1020
23 23:30 北北西 2 10km以上 12 38 1020
23 23:00 北西 2 10km以上 12 38 1021
23 22:30 北西 2 10km以上 11 40 1021
23 22:00 北北西 3 10km以上 12 38 1021
23 21:30 西北西 3 10km以上 13 35 1021
23 21:00 西 2 10km以上 13 35 1021
23 20:30 北西 2 10km以上 14 31 1020
23 20:00 北北西 3 10km以上 15 29 1020
23 19:30 北北西 2 10km以上 14 31 1020
23 19:00 北西 2 10km以上 14 29 1020
23 18:30 西北西 3 10km以上 15 27 1020
23 18:00 西北西 4 10km以上 15 27 1020
23 17:30 西北西 5 10km以上 16 25 1020
23 17:00 西 3 10km以上 16 25 1020
23 16:30 西北西 5 10km以上 17 24 1019
23 16:00 西北西 6 10km以上 17 25 1019
23 15:30 西 6 10km以上 17 25 1020
23 15:00 西 5 10km以上 17 25 1020
23 14:30 西北西 6 10km以上 17 25 1020
23 14:00 西北西 7 10km以上 16 27 1020
23 13:30 西南西 10 10km以上 16 31 1020
23 13:00 西南西 9 10km以上 15 33 1021
23 12:30 西南西 8 10km以上 16 31 1021
OIII 250800Z 15006KT 2000 +RA SCT015 SCT025 OVC080 10/08 Q1015 A2999 NOSIG
OIII 250730Z 00000KT 2000 +RA SCT020 SCT025 OVC080 10/08 Q1016 A3000
OIII 250700Z 09006KT 2000 RA SCT020 SCT025 OVC080 10/08 Q1015 A2999 TEMPO 1500 RA
OIII 250630Z 14006KT 2000 RA SCT020 SCT025 OVC080 10/08 Q1015 A3000
OIII 250600Z 17006KT 3000 RA SCT020 SCT025 OVC080 10/09 Q1016 A3000
OIII 250530Z 13006KT 4000 RA SCT020 SCT025 OVC090 10/08 Q1015 A3000
OIII 250500Z 16006KT 4000 RA SCT015 SCT025 OVC080 11/09 Q1015 A2999 TEMPO 3000 RA
OIII 250430Z 09008KT 5000 -RA SCT025 FEW030CB OVC090 11/08 Q1015 A2998
OIII 250400Z 10006KT 5000 -RA FEW030CB SCT035 OVC090 11/08 Q1015 A2998
OIII 250330Z 08006KT 3000 RA FEW030CB SCT035 OVC090 10/08 Q1014 A2997
OIII 250309Z 08006KT 3000 RA FEW030CB SCT035 OVC090 10/08 Q1015 A2998
OIII 250232Z 00000KT 3000 RA FEW030CB SCT035 OVC090 10/08 Q1015 A2998
OIII 250200Z 00000KT 3000 RA FEW035CB SCT040 OVC090 09/07 Q1015 A2998
OIII 250130Z 25004KT 3000 RA FEW035CB SCT040 OVC090 10/07 Q1015 A2999
OIII 250106Z 00000KT 3000 RA SCT040 OVC090 10/07 Q1015 A2998
OIII 250100Z 00000KT 5000 -RA SCT040 OVC090 11/08 Q1015 A2998 TEMPO 4000 RA
OIII 250030Z 00000KT 6000 -RA SCT040 OVC090 11/07 Q1014 A2997
OIII 250000Z 26006KT 8000 SCT040 BKN090 11/07 Q1015 A2998 TEMPO 4000 RA BR
OIII 242330Z 31006KT 8000 -RA SCT040 BKN090 12/07 Q1015 A2997
OIII 242300Z 00000KT 9999 SCT025 SCT040 BKN090 12/07 Q1014 A2997 NOSIG
OIII 242230Z 28004KT 9999 FEW035CB SCT040 BKN090 12/07 Q1014 A2997
OIII 242200Z 02004KT 9999 FEW035CB SCT040 BKN090 13/06 Q1014 A2997 NOSIG
OIII 242130Z 06008KT 9999 FEW035CB SCT040 BKN090 12/06 Q1015 A2993 RERA
OIII 242100Z 03004KT 8000 -RA FEW035CB SCT040 OVC090 12/05 Q1016 A3001 NOSIG
OIII 242030Z 02006KT 9999 SCT040 BKN090 12/05 Q1016 A3001 RERA
OIII 242000Z 04006KT 7000 -RA FEW025 SCT040 OVC090 12/06 Q1016 A3002 NOSIG
OIII 241930Z 04006KT 6000 -RA FEW035CB SCT040 OVC090 12/06 Q1017 A3005
OIII 241900Z 06004KT 7000 -RA FEW035CB SCT040 OVC090 12/06 Q1018 A3006
OIII 241830Z 04006KT 6000 -RA FEW035CB SCT040 OVC090 11/06 Q1018 A3006
OIII 241800Z 03006KT 5000 -RA FEW035CB SCT040 OVC090 12/06 Q1018 A3007 NOSIG
OIII 241730Z 04008KT 6000 -RA FEW035CB SCT040 OVC090 12/06 Q1018 A3007
OIII 241700Z 05008KT 8000 -RA FEW035CB SCT040 OVC090 12/06 Q1018 A3008 NOSIG
OIII 241600Z 36006KT 8000 -RA FEW035CB SCT040 OVC090 14/04 Q1018 A3008 NOSIG
OIII 241530Z 21004KT 8000 -SHRA FEW035CB SCT040 OVC090 15/00 Q1018 A3007
OIII 241500Z 00000KT 8000 -SHRA FEW035CB SCT040 BKN090 16/M01 Q1018 A3006
OIII 241446Z 24004KT 8000 -SHRA FEW035CB SCT040 BKN100 16/M00 Q1018 A3006
OIII 241430Z 22006KT 8000 FEW040CB SCT100 OVC180 16/01 Q1017 A3004
OIII 241400Z 19010KT 8000 FEW040 SCT100 OVC180 17/M02 Q1016 A3003
OIII 241330Z 21006KT 8000 FEW040 SCT100 OVC180 17/M01 Q1016 A3002
OIII 241300Z 22008KT 8000 FEW040 SCT100 BKN180 17/M01 Q1016 A3001 NOSIG
OIII 241230Z 21006KT 8000 FEW040 SCT100 BKN180 17/M01 Q1016 A3001
OIII 241200Z 18006KT 8000 FEW040 SCT100 BKN180 18/M01 Q1016 A3002 NOSIG
OIII 241130Z 21004KT 8000 FEW040 BKN180 18/M01 Q1017 A3003
OIII 241100Z 20008KT 8000 FEW040 BKN180 18/M01 Q1017 A3004
OIII 241030Z 18008KT 8000 FEW040 BKN180 18/M01 Q1018 A3006
OIII 241000Z 21006KT 9999 FEW040 BKN180 18/M02 Q1018 A3008 NOSIG
OIII 240930Z 19010KT 8000 FEW035 BKN180 18/M02 Q1019 A3009
OIII 240900Z 24008KT 8000 FEW040 BKN180 18/M02 Q1019 A3011 NOSIG
OIII 240830Z 25006KT 8000 FEW040 SCT100 BKN180 17/M02 Q1020 A3012
OIII 240800Z 22008KT 8000 FEW040 SCT100 BKN200 17/M02 Q1020 A3013 NOSIG
OIII 240730Z 25004KT 9999 FEW040 SCT200 17/M03 Q1020 A3014
OIII 240700Z 00000KT 9999 FEW040 SCT200 17/M02 Q1020 A3014 NOSIG
OIII 240630Z 00000KT 9999 FEW040 SCT200 17/M02 Q1021 A3015
OIII 240600Z 00000KT 9999 FEW040 SCT200 15/M02 Q1021 A3015 NOSIG
OIII 240530Z 18004KT CAVOK 14/M01 Q1021 A3016 NOSIG
OIII 240500Z 00000KT CAVOK 13/M00 Q1021 A3015 NOSIG
OIII 240430Z 00000KT CAVOK 12/00 Q1020 A3015
OIII 240400Z 00000KT CAVOK 11/M01 Q1020 A3013 NOSIG
OIII 240330Z 03004KT CAVOK 10/M02 Q1020 A3012
OIII 240300Z 36004KT CAVOK 11/M02 Q1019 A3011 NOSIG
OIII 240230Z 32006KT CAVOK 11/M02 Q1019 A3011
OIII 240200Z 33006KT CAVOK 12/M02 Q1019 A3011 NOSIG
OIII 240130Z 33004KT CAVOK 12/M02 Q1019 A3011
OIII 240100Z 33006KT CAVOK 12/M02 Q1019 A3011 NOSIG
OIII 240030Z 31004KT CAVOK 11/M02 Q1019 A3010
OIII 240000Z 33004KT CAVOK 12/M01 Q1019 A3011 NOSIG
OIII 232330Z 36004KT CAVOK 10/M01 Q1019 A3011
OIII 232300Z 34004KT CAVOK 11/M01 Q1019 A3011 NOSIG
OIII 232230Z 00000KT CAVOK 12/M01 Q1020 A3012
OIII 232200Z 34004KT CAVOK 12/M01 Q1019 A3011 NOSIG
OIII 232130Z 33006KT 9999 SCT100 13/M01 Q1020 A3012
OIII 232100Z 33004KT 9999 FEW100 12/M01 Q1020 A3014 NOSIG
OIII 232030Z 33004KT 9999 SCT100 13/M01 Q1020 A3014
OIII 232000Z 33004KT 9999 SCT100 12/M02 Q1020 A3014 NOSIG
OIII 231930Z 32004KT 9999 FEW100 12/M02 Q1021 A3015
OIII 231900Z 31004KT 9999 FEW100 11/M02 Q1021 A3016
OIII 231830Z 33006KT 9999 FEW100 12/M02 Q1021 A3016
OIII 231800Z 30006KT 9999 FEW100 13/M02 Q1021 A3016
OIII 231730Z 27004KT CAVOK 13/M02 Q1021 A3016
OIII 231700Z 31004KT CAVOK 14/M03 Q1020 A3014 NOSIG
OIII 231630Z 33006KT 9999 FEW040 SCT100 15/M03 Q1020 A3013
OIII 231600Z 33004KT 9999 FEW040 SCT100 14/M03 Q1020 A3014 NOSIG
OIII 231530Z 32004KT 9999 FEW040 14/M04 Q1020 A3014
OIII 231500Z 29006KT 9999 FEW040 15/M04 Q1020 A3013
OIII 231430Z 30008KT 9999 FEW040 SCT100 15/M04 Q1020 A3013
OIII 231400Z 30010KT 9999 FEW040 SCT100 16/M04 Q1020 A3012
OIII 231330Z 28006KT 9999 FEW040 SCT100 16/M04 Q1020 A3012
OIII 231300Z 30010KT 9999 FEW040 SCT100 17/M04 Q1019 A3012
OIII 231230Z 30012KT 9999 FEW040 SCT100 17/M03 Q1019 A3012
OIII 231200Z 28012KT 9999 FEW040 17/M03 Q1020 A3013
OIII 231130Z 28010KT 9999 FEW040 17/M03 Q1020 A3013
OIII 231100Z 29012KT 9999 FEW040 SCT100 17/M03 Q1020 A3014 NOSIG
OIII 231030Z 30014KT 9999 FEW035TCU SCT100 16/M03 Q1020 A3014
OIII 231000Z 25020KT 9999 FEW035TCU SCT040 BKN100 16/M01 Q1020 A3014 NOSIG
OIII 230930Z 25018KT 9999 FEW035TCU BKN100 15/M01 Q1021 A3015
OIII 230900Z 25016KT 9999 FEW035TCU SCT100 16/M01 Q1021 A3016 NOSIG